Time;durP1;ratioP1;P1;durP2;ratioP2;P2;SDS_P1;SDS_P2;PMS_P1;PMS_P2;Temp;Humidity;BMP_temperature;BMP_pressure;BME280_temperature;BME280_humidity;BME280_pressure;Samples;Min_cycle;Max_cycle;Signal;HPM_P1;HPM_P2
2021/05/12 00:00:16;;;;;;;24.77;20.92;;;12.50;99.90;;;;;;4722781;30;20531;-80
2021/05/12 00:02:43;;;;;;;23.02;20.17;;;12.50;99.90;;;;;;4728814;30;20040;-79
2021/05/12 00:05:11;;;;;;;24.33;21.75;;;12.50;99.90;;;;;;4721615;30;20052;-80
2021/05/12 00:07:38;;;;;;;23.65;21.15;;;12.40;99.90;;;;;;4715028;30;20053;-79
2021/05/12 00:10:06;;;;;;;22.58;20.27;;;12.40;99.90;;;;;;4727191;30;20055;-79
2021/05/12 00:12:34;;;;;;;25.67;22.92;;;12.30;99.90;;;;;;4728178;30;20055;-80
2021/05/12 00:15:05;;;;;;;22.35;20.05;;;12.30;99.90;;;;;;4726620;30;20044;-80
2021/05/12 00:17:34;;;;;;;26.23;23.45;;;12.30;99.90;;;;;;4729426;30;20092;-80
2021/05/12 00:20:01;;;;;;;23.38;20.88;;;12.20;99.90;;;;;;4719000;30;20697;-79
2021/05/12 00:22:42;;;;;;;23.80;20.52;;;12.20;99.90;;;;;;4705803;30;20881;-80
2021/05/12 00:25:10;;;;;;;21.83;19.42;;;12.20;99.90;;;;;;4709652;30;20635;-80
2021/05/12 00:27:37;;;;;;;23.70;21.17;;;12.10;99.90;;;;;;4720150;30;20052;-80
2021/05/12 00:30:10;;;;;;;24.80;22.15;;;12.10;99.90;;;;;;4727801;30;20064;-80
2021/05/12 00:32:37;;;;;;;23.33;20.88;;;12.00;99.90;;;;;;4724002;30;20047;-80
2021/05/12 00:35:05;;;;;;;27.90;22.90;;;12.00;99.90;;;;;;4715535;30;20059;-80
2021/05/12 00:37:31;;;;;;;26.48;22.55;;;12.00;99.90;;;;;;4729880;30;20048;-80
2021/05/12 00:39:58;;;;;;;27.60;24.13;;;12.00;99.90;;;;;;4712982;30;20055;-80
2021/05/12 00:42:28;;;;;;;25.60;22.17;;;11.90;99.90;;;;;;4701238;30;20044;-80
2021/05/12 00:44:55;;;;;;;29.48;26.33;;;12.00;99.90;;;;;;4736833;30;20059;-79
2021/05/12 00:47:29;;;;;;;27.45;22.55;;;11.90;99.90;;;;;;4719599;30;20056;-80
2021/05/12 00:49:57;;;;;;;22.77;19.50;;;11.90;99.90;;;;;;4719483;30;20059;-80
2021/05/12 00:52:24;;;;;;;25.95;20.85;;;11.90;99.90;;;;;;4729491;30;20044;-80
2021/05/12 00:54:52;;;;;;;27.33;22.63;;;11.90;99.90;;;;;;4713702;30;20044;-80
2021/05/12 00:57:20;;;;;;;23.95;18.85;;;11.90;99.90;;;;;;4747004;30;20067;-80
2021/05/12 00:59:48;;;;;;;28.73;20.00;;;11.90;99.90;;;;;;4698063;30;20056;-80
2021/05/12 01:02:15;;;;;;;29.20;19.65;;;11.90;99.90;;;;;;4746428;30;20055;-80
2021/05/12 01:04:42;;;;;;;24.17;19.73;;;11.80;99.90;;;;;;4740255;30;20052;-80
2021/05/12 01:07:08;;;;;;;28.52;20.45;;;11.80;99.90;;;;;;4711767;30;20762;-80
2021/05/12 01:09:35;;;;;;;24.17;19.70;;;11.80;99.90;;;;;;4718225;30;20430;-80
2021/05/12 01:12:02;;;;;;;20.45;16.55;;;11.80;99.90;;;;;;4730093;30;20032;-80
2021/05/12 01:14:30;;;;;;;26.90;18.98;;;11.80;99.90;;;;;;4717879;30;20894;-80
2021/05/12 01:16:56;;;;;;;25.20;16.67;;;11.80;99.90;;;;;;4719689;30;20143;-80
2021/05/12 01:19:23;;;;;;;23.95;17.05;;;11.80;99.90;;;;;;4721582;30;20932;-80
2021/05/12 01:21:50;;;;;;;25.05;16.38;;;11.70;99.90;;;;;;4731415;30;20060;-80
2021/05/12 01:24:16;;;;;;;20.38;15.00;;;11.70;99.90;;;;;;4740980;30;20040;-80
2021/05/12 01:26:43;;;;;;;16.35;12.95;;;11.60;99.90;;;;;;4718240;30;20050;-80
2021/05/12 01:29:10;;;;;;;17.63;12.55;;;11.70;99.90;;;;;;4732504;30;20056;-80
2021/05/12 01:31:43;;;;;;;15.50;11.82;;;11.60;99.90;;;;;;4723218;30;20059;-81
2021/05/12 01:34:18;;;;;;;14.32;9.82;;;11.60;99.90;;;;;;4716389;30;20048;-80
2021/05/12 01:36:47;;;;;;;15.48;10.18;;;11.60;99.90;;;;;;4733050;30;20059;-80
2021/05/12 01:39:14;;;;;;;13.25;9.48;;;11.50;99.90;;;;;;4717446;30;20052;-79
2021/05/12 01:41:41;;;;;;;12.07;9.20;;;11.50;99.90;;;;;;4745725;30;20048;-80
2021/05/12 01:44:11;;;;;;;12.80;8.25;;;11.50;99.90;;;;;;4705274;30;20057;-79
2021/05/12 01:46:40;;;;;;;10.90;8.90;;;11.40;99.90;;;;;;4732253;30;20036;-79
2021/05/12 01:49:07;;;;;;;10.95;7.03;;;11.40;99.90;;;;;;4720808;30;20052;-79
2021/05/12 01:51:35;;;;;;;12.65;8.02;;;11.30;99.90;;;;;;4730717;30;20071;-80
2021/05/12 01:54:07;;;;;;;9.65;7.60;;;11.30;99.90;;;;;;4720494;30;20136;-79
2021/05/12 01:56:35;;;;;;;11.15;8.07;;;11.20;99.90;;;;;;4717877;30;20047;-79
2021/05/12 01:59:03;;;;;;;11.40;7.03;;;11.20;99.90;;;;;;4729747;30;20060;-80
2021/05/12 02:01:30;;;;;;;10.00;7.45;;;11.10;99.90;;;;;;4745894;30;20052;-79
2021/05/12 02:04:04;;;;;;;14.73;7.22;;;11.10;99.90;;;;;;4722657;30;20048;-79
2021/05/12 02:06:32;;;;;;;9.43;5.90;;;11.10;99.90;;;;;;4714924;30;20500;-79
2021/05/12 02:09:07;;;;;;;9.25;6.65;;;11.00;99.90;;;;;;4717565;30;20056;-79
2021/05/12 02:11:38;;;;;;;9.35;6.90;;;11.00;99.90;;;;;;4716699;30;20048;-79
2021/05/12 02:14:05;;;;;;;10.80;6.82;;;10.90;99.90;;;;;;4729455;30;20067;-79
2021/05/12 02:16:32;;;;;;;11.00;7.18;;;10.90;99.90;;;;;;4715428;30;20077;-79
2021/05/12 02:18:58;;;;;;;10.85;6.53;;;10.90;99.90;;;;;;4717936;30;20060;-79
2021/05/12 02:21:25;;;;;;;10.85;6.75;;;10.80;99.90;;;;;;4716603;30;20052;-79
2021/05/12 02:23:51;;;;;;;11.75;6.80;;;10.80;99.90;;;;;;4723546;30;20063;-79
2021/05/12 02:26:18;;;;;;;9.30;6.10;;;10.70;99.90;;;;;;4737379;30;20048;-79
2021/05/12 02:28:44;;;;;;;10.70;5.95;;;10.70;99.90;;;;;;4699551;30;20049;-79
2021/05/12 02:31:10;;;;;;;8.20;5.72;;;10.70;99.90;;;;;;4701990;30;20053;-79
2021/05/12 02:33:37;;;;;;;10.75;5.82;;;10.70;99.90;;;;;;4719870;30;20052;-79
2021/05/12 02:36:04;;;;;;;8.93;5.75;;;10.70;99.90;;;;;;4718653;30;20563;-79
2021/05/12 02:38:30;;;;;;;9.60;6.10;;;10.70;99.90;;;;;;4711328;30;20056;-79
2021/05/12 02:40:57;;;;;;;11.23;6.32;;;10.80;99.90;;;;;;4743368;30;20056;-79
2021/05/12 02:43:23;;;;;;;9.55;5.50;;;10.80;99.90;;;;;;4710746;30;20067;-79
2021/05/12 02:45:49;;;;;;;8.65;5.47;;;10.90;99.90;;;;;;4731504;30;20044;-79
2021/05/12 02:48:16;;;;;;;9.45;5.35;;;10.90;99.90;;;;;;4732223;30;20060;-79
2021/05/12 02:50:43;;;;;;;10.20;5.93;;;11.00;99.90;;;;;;4714485;30;20048;-80
2021/05/12 02:53:11;;;;;;;7.30;5.28;;;11.10;99.90;;;;;;4731505;30;20040;-79
2021/05/12 02:55:38;;;;;;;7.22;5.68;;;11.10;99.90;;;;;;4719776;30;20420;-79
2021/05/12 02:58:06;;;;;;;12.48;6.30;;;11.10;99.90;;;;;;4726401;30;20052;-79
2021/05/12 03:00:35;;;;;;;9.65;5.88;;;11.10;99.90;;;;;;4726683;30;20412;-79
2021/05/12 03:03:02;;;;;;;9.25;6.90;;;11.10;99.90;;;;;;4728758;30;20089;-81
2021/05/12 03:05:30;;;;;;;10.55;7.03;;;11.20;99.90;;;;;;4731025;30;20421;-80
2021/05/12 03:07:57;;;;;;;11.35;7.30;;;11.10;99.90;;;;;;4717985;30;20560;-79
2021/05/12 03:10:26;;;;;;;10.63;7.43;;;11.20;99.90;;;;;;4705426;30;20044;-80
2021/05/12 03:12:53;;;;;;;10.88;7.45;;;11.10;99.90;;;;;;4720825;30;20044;-79
2021/05/12 03:15:22;;;;;;;10.70;7.60;;;11.10;99.90;;;;;;4745696;30;20500;-79
2021/05/12 03:17:51;;;;;;;17.70;8.38;;;11.10;99.90;;;;;;4732188;30;20047;-79
2021/05/12 03:20:18;;;;;;;12.23;8.68;;;11.10;99.90;;;;;;4743557;30;20488;-80
2021/05/12 03:22:46;;;;;;;13.50;8.63;;;11.10;99.90;;;;;;4730616;30;20051;-79
2021/05/12 03:25:14;;;;;;;11.65;8.85;;;11.10;99.90;;;;;;4746506;30;20040;-78
2021/05/12 03:27:41;;;;;;;13.40;10.05;;;11.00;99.90;;;;;;4731085;30;20044;-79
2021/05/12 03:30:13;;;;;;;14.90;11.45;;;11.00;99.90;;;;;;4727412;30;20136;-79
2021/05/12 03:32:40;;;;;;;14.13;10.63;;;10.90;99.90;;;;;;4744876;30;20056;-78
2021/05/12 03:35:08;;;;;;;19.17;11.75;;;10.90;99.90;;;;;;4729766;30;20488;-80
2021/05/12 03:37:35;;;;;;;15.00;11.63;;;10.80;99.90;;;;;;4722934;30;20044;-79
2021/05/12 03:40:02;;;;;;;16.33;10.95;;;10.70;99.90;;;;;;4742763;30;20064;-79
2021/05/12 03:42:29;;;;;;;14.88;11.32;;;10.70;99.90;;;;;;4730855;30;20048;-79
2021/05/12 03:44:56;;;;;;;15.55;10.35;;;10.60;99.90;;;;;;4730493;30;20069;-79
2021/05/12 03:47:23;;;;;;;15.20;11.35;;;10.60;99.90;;;;;;4718990;30;20063;-79
2021/05/12 03:49:50;;;;;;;17.17;13.68;;;10.60;99.90;;;;;;4726640;30;20056;-79
2021/05/12 03:52:16;;;;;;;19.02;13.07;;;10.50;99.90;;;;;;4727540;30;20040;-79
2021/05/12 03:54:43;;;;;;;20.73;14.95;;;10.50;99.90;;;;;;4714625;30;20071;-79
2021/05/12 03:57:10;;;;;;;17.38;13.73;;;10.40;99.90;;;;;;4733088;30;20055;-79
2021/05/12 03:59:36;;;;;;;21.00;15.10;;;10.40;99.90;;;;;;4728056;30;20052;-79
2021/05/12 04:02:03;;;;;;;22.67;16.00;;;10.30;99.90;;;;;;4727684;30;20060;-79
2021/05/12 04:04:29;;;;;;;27.48;16.15;;;10.30;99.90;;;;;;4714855;30;20044;-79
2021/05/12 04:06:56;;;;;;;29.77;20.25;;;10.30;99.90;;;;;;4745651;30;20188;-79
2021/05/12 04:09:23;;;;;;;21.77;17.70;;;10.30;99.90;;;;;;4728810;30;20052;-79
2021/05/12 04:11:49;;;;;;;25.27;18.60;;;10.30;99.90;;;;;;4742678;30;20064;-78
2021/05/12 04:14:16;;;;;;;22.00;16.65;;;10.30;99.90;;;;;;4730002;30;20071;-79
2021/05/12 04:16:42;;;;;;;31.10;19.85;;;10.30;99.90;;;;;;4718512;30;20091;-79
2021/05/12 04:19:09;;;;;;;27.90;19.75;;;10.30;99.90;;;;;;4726718;30;20270;-78
2021/05/12 04:21:35;;;;;;;26.45;18.13;;;10.30;99.90;;;;;;4710982;30;20484;-79
2021/05/12 04:24:02;;;;;;;31.65;21.77;;;10.30;99.90;;;;;;4744640;30;20054;-80
2021/05/12 04:26:30;;;;;;;24.88;18.75;;;10.40;99.90;;;;;;4719424;30;20040;-78
2021/05/12 04:28:56;;;;;;;24.85;18.63;;;10.40;99.90;;;;;;4715661;30;20052;-79
2021/05/12 04:31:23;;;;;;;24.15;18.02;;;10.50;99.90;;;;;;4742827;30;20300;-78
2021/05/12 04:33:49;;;;;;;27.55;18.55;;;10.50;99.90;;;;;;4714243;30;20052;-79
2021/05/12 04:36:16;;;;;;;24.02;16.40;;;10.50;99.90;;;;;;4728832;30;20055;-78
2021/05/12 04:38:42;;;;;;;30.08;19.05;;;10.60;99.90;;;;;;4705455;30;20048;-78
2021/05/12 04:41:09;;;;;;;24.08;18.95;;;10.60;99.90;;;;;;4725624;30;20060;-78
2021/05/12 04:43:35;;;;;;;23.20;17.23;;;10.60;99.90;;;;;;4729105;30;20051;-78
2021/05/12 04:46:02;;;;;;;22.77;17.52;;;10.60;99.90;;;;;;4727728;30;20527;-78
2021/05/12 04:48:30;;;;;;;22.80;18.35;;;10.60;99.90;;;;;;4743770;30;20055;-78
2021/05/12 04:50:58;;;;;;;24.25;16.55;;;10.70;99.90;;;;;;4739778;30;20056;-78
2021/05/12 04:53:25;;;;;;;26.88;18.17;;;10.70;99.90;;;;;;4742545;30;20793;-78
2021/05/12 04:55:51;;;;;;;21.83;16.80;;;10.60;99.90;;;;;;4728419;30;20935;-78
2021/05/12 04:58:19;;;;;;;21.52;15.50;;;10.70;99.90;;;;;;4729238;30;20059;-78
2021/05/12 05:00:47;;;;;;;22.20;16.45;;;10.70;99.90;;;;;;4741546;30;20052;-79
2021/05/12 05:03:14;;;;;;;19.70;14.80;;;10.70;99.90;;;;;;4731868;30;20036;-78
2021/05/12 05:05:41;;;;;;;23.02;16.27;;;10.80;99.90;;;;;;4743319;30;20068;-78
2021/05/12 05:08:07;;;;;;;29.75;19.05;;;10.90;99.90;;;;;;4744184;30;20065;-79
2021/05/12 05:10:34;;;;;;;21.45;16.17;;;11.00;99.90;;;;;;4742688;30;20040;-78
2021/05/12 05:13:00;;;;;;;21.95;15.93;;;11.20;99.90;;;;;;4715894;30;20519;-78
2021/05/12 05:15:27;;;;;;;26.05;16.95;;;11.30;99.90;;;;;;4700660;30;20075;-78
2021/05/12 05:17:54;;;;;;;21.70;15.68;;;11.50;99.90;;;;;;4731347;30;20055;-78
2021/05/12 05:20:23;;;;;;;18.38;13.88;;;11.60;99.90;;;;;;4716833;30;20063;-78
2021/05/12 05:22:50;;;;;;;19.23;13.90;;;11.70;99.90;;;;;;4728982;30;20060;-78
2021/05/12 05:25:16;;;;;;;17.73;13.35;;;11.90;99.90;;;;;;4716091;30;20051;-78
2021/05/12 05:27:43;;;;;;;18.67;14.68;;;12.00;99.90;;;;;;4729425;30;20044;-80
2021/05/12 05:30:10;;;;;;;20.83;14.75;;;12.20;99.90;;;;;;4727178;30;20060;-80
2021/05/12 05:33:02;;;;;;;20.10;14.25;;;12.40;99.90;;;;;;4743043;30;20055;-79
2021/05/12 05:35:47;;;;;;;17.85;14.57;;;12.60;99.90;;;;;;4742585;30;20083;-79
2021/05/12 05:38:32;;;;;;;20.38;14.77;;;12.70;99.90;;;;;;4743029;30;20127;-79
2021/05/12 05:41:17;;;;;;;19.45;14.68;;;12.80;99.90;;;;;;4728951;30;20063;-79
2021/05/12 05:44:03;;;;;;;20.65;14.82;;;12.90;99.70;;;;;;4747518;30;20059;-79
2021/05/12 05:46:48;;;;;;;21.77;15.13;;;13.10;99.40;;;;;;4748406;30;20047;-78
2021/05/12 05:49:37;;;;;;;21.25;15.25;;;13.10;99.20;;;;;;4730235;30;20056;-79
2021/05/12 05:52:22;;;;;;;21.27;14.90;;;13.30;99.10;;;;;;4722225;30;20051;-78
2021/05/12 05:55:18;;;;;;;19.83;14.65;;;13.40;98.90;;;;;;4673379;30;20070;-78
2021/05/12 05:58:03;;;;;;;21.77;15.07;;;13.50;98.70;;;;;;4733539;30;20056;-79
2021/05/12 06:00:48;;;;;;;25.02;14.63;;;13.60;98.60;;;;;;4744368;30;20056;-79
2021/05/12 06:03:15;;;;;;;20.40;14.95;;;13.80;98.50;;;;;;4717120;30;20047;-79
2021/05/12 06:06:00;;;;;;;18.70;14.88;;;13.90;98.30;;;;;;4746401;30;20052;-79
2021/05/12 06:08:45;;;;;;;19.35;13.75;;;14.00;98.10;;;;;;4742483;30;20067;-79
2021/05/12 06:11:30;;;;;;;20.92;14.60;;;14.10;98.00;;;;;;4745244;30;20060;-79
2021/05/12 06:14:16;;;;;;;19.10;15.07;;;14.30;97.70;;;;;;4732614;30;20065;-79
2021/05/12 06:17:01;;;;;;;16.33;12.38;;;14.40;97.40;;;;;;4731144;30;20066;-79
2021/05/12 06:19:46;;;;;;;17.27;13.57;;;14.50;97.40;;;;;;4741501;30;20052;-79
2021/05/12 06:22:32;;;;;;;20.08;14.57;;;14.70;97.00;;;;;;4723868;30;20071;-79
2021/05/12 06:25:16;;;;;;;18.33;13.95;;;14.80;96.50;;;;;;4736745;30;20505;-80
2021/05/12 06:28:02;;;;;;;21.80;15.25;;;14.90;96.10;;;;;;4746800;30;20044;-78
2021/05/12 06:30:50;;;;;;;18.63;13.48;;;15.00;94.90;;;;;;4741100;30;20051;-79
2021/05/12 06:33:37;;;;;;;16.05;11.38;;;15.20;95.10;;;;;;4734638;30;20079;-79
2021/05/12 06:36:23;;;;;;;16.90;11.98;;;15.60;94.50;;;;;;4745012;30;20071;-78
2021/05/12 06:39:07;;;;;;;14.05;11.07;;;15.80;93.90;;;;;;4742714;30;20064;-78
2021/05/12 06:41:35;;;;;;;15.30;9.90;;;15.90;93.40;;;;;;4727626;30;20048;-78
2021/05/12 06:44:03;;;;;;;15.70;10.23;;;15.90;92.80;;;;;;4728099;30;20052;-78
2021/05/12 06:46:30;;;;;;;15.43;9.18;;;15.90;92.40;;;;;;4729490;30;20056;-78
2021/05/12 06:48:56;;;;;;;12.65;7.70;;;16.00;92.30;;;;;;4728738;30;20048;-78
2021/05/12 06:51:23;;;;;;;12.57;7.47;;;16.10;92.00;;;;;;4728491;30;20428;-79
2021/05/12 06:53:49;;;;;;;13.18;7.50;;;16.20;91.20;;;;;;4712452;30;20048;-80
2021/05/12 06:56:16;;;;;;;17.92;7.60;;;16.20;90.90;;;;;;4745713;30;20055;-80
2021/05/12 06:58:42;;;;;;;10.07;5.22;;;16.20;90.90;;;;;;4742479;30;20071;-79
2021/05/12 07:01:15;;;;;;;14.82;7.20;;;16.30;90.90;;;;;;4712799;30;20064;-79
2021/05/12 07:03:41;;;;;;;13.43;6.93;;;16.30;91.20;;;;;;4744272;30;20751;-79
2021/05/12 07:06:08;;;;;;;10.93;6.22;;;16.40;91.10;;;;;;4743210;30;20040;-79
2021/05/12 07:08:37;;;;;;;10.73;6.05;;;16.40;90.20;;;;;;4741864;30;20048;-79
2021/05/12 07:11:07;;;;;;;11.70;6.20;;;16.40;90.30;;;;;;4703368;30;20056;-79
2021/05/12 07:13:34;;;;;;;11.38;6.97;;;16.40;90.40;;;;;;4744947;30;20071;-79
2021/05/12 07:16:01;;;;;;;12.63;7.38;;;16.40;90.00;;;;;;4729014;30;20067;-79
2021/05/12 07:18:28;;;;;;;9.18;5.45;;;16.50;89.80;;;;;;4733082;30;20047;-81
2021/05/12 07:20:54;;;;;;;12.45;6.40;;;16.60;89.60;;;;;;4726440;30;20056;-79
2021/05/12 07:23:23;;;;;;;9.38;4.25;;;16.60;88.90;;;;;;4713668;30;20051;-78
2021/05/12 07:25:51;;;;;;;10.80;5.28;;;16.70;89.10;;;;;;4742183;30;20036;-79
2021/05/12 07:28:18;;;;;;;11.23;6.00;;;16.70;88.70;;;;;;4727522;30;20044;-78
2021/05/12 07:30:45;;;;;;;11.43;5.47;;;16.90;88.90;;;;;;4740727;30;20055;-78
2021/05/12 07:33:12;;;;;;;10.38;5.03;;;17.00;87.60;;;;;;4726011;30;20252;-78
2021/05/12 07:35:39;;;;;;;13.07;5.05;;;17.00;88.00;;;;;;4744156;30;20063;-77
2021/05/12 07:38:06;;;;;;;8.90;4.50;;;17.00;85.60;;;;;;4718717;30;20036;-78
2021/05/12 07:40:36;;;;;;;7.93;3.53;;;17.10;85.40;;;;;;4724322;30;20056;-78
2021/05/12 07:43:10;;;;;;;7.50;3.15;;;17.10;85.50;;;;;;4727936;30;20082;-78
2021/05/12 07:45:39;;;;;;;11.13;4.53;;;17.20;84.30;;;;;;4729291;30;20048;-78
2021/05/12 07:48:07;;;;;;;7.82;3.42;;;17.20;83.90;;;;;;4728057;30;20040;-78
2021/05/12 07:50:35;;;;;;;5.68;2.30;;;17.30;84.10;;;;;;4727022;30;20056;-81
2021/05/12 07:53:03;;;;;;;7.75;2.55;;;17.50;84.20;;;;;;4745615;30;20048;-80
2021/05/12 07:55:30;;;;;;;5.43;1.90;;;17.60;83.60;;;;;;4745482;30;20040;-80
2021/05/12 07:57:57;;;;;;;4.80;2.03;;;17.70;82.10;;;;;;4738600;30;20032;-80
2021/05/12 08:00:24;;;;;;;8.27;2.38;;;17.70;81.10;;;;;;4741921;30;20052;-80
2021/05/12 08:02:50;;;;;;;6.68;1.80;;;17.70;79.60;;;;;;4737748;30;20044;-80
2021/05/12 08:05:17;;;;;;;3.70;1.38;;;17.70;79.80;;;;;;4729769;30;21039;-81
2021/05/12 08:07:44;;;;;;;7.72;1.83;;;17.80;79.60;;;;;;4745771;30;20051;-81
2021/05/12 08:10:11;;;;;;;6.00;1.75;;;17.90;79.60;;;;;;4742232;30;20052;-81
2021/05/12 08:12:37;;;;;;;5.88;1.30;;;18.00;79.50;;;;;;4731562;30;20040;-81
2021/05/12 08:15:04;;;;;;;4.50;1.30;;;18.10;79.20;;;;;;4716911;30;20055;-81
2021/05/12 08:17:31;;;;;;;6.93;1.30;;;18.20;79.40;;;;;;4744581;30;20052;-79
2021/05/12 08:19:59;;;;;;;4.95;1.80;;;18.30;78.20;;;;;;4740810;30;20040;-78
2021/05/12 08:22:26;;;;;;;4.97;1.10;;;18.40;77.60;;;;;;4742235;30;20051;-78
2021/05/12 08:24:52;;;;;;;5.60;1.15;;;18.40;77.70;;;;;;4728187;30;20516;-78
2021/05/12 08:27:19;;;;;;;3.03;1.00;;;18.50;77.90;;;;;;4743104;30;20032;-78
2021/05/12 08:29:46;;;;;;;7.22;1.08;;;18.70;77.40;;;;;;4725034;30;20087;-79
2021/05/12 08:32:15;;;;;;;5.53;1.27;;;18.70;76.70;;;;;;4724726;30;20040;-79
2021/05/12 08:34:42;;;;;;;8.27;1.17;;;18.80;75.70;;;;;;4714929;30;20044;-81
2021/05/12 08:37:09;;;;;;;4.05;0.90;;;18.80;75.90;;;;;;4715419;30;20044;-80
2021/05/12 08:39:36;;;;;;;6.07;1.88;;;18.80;77.00;;;;;;4743861;30;20048;-79
2021/05/12 08:42:03;;;;;;;7.72;1.23;;;19.00;77.00;;;;;;4718569;30;20036;-79
2021/05/12 08:44:32;;;;;;;6.88;1.35;;;19.20;76.60;;;;;;4744111;30;20063;-81
2021/05/12 08:47:01;;;;;;;4.43;1.13;;;19.20;74.80;;;;;;4729365;30;20040;-82
2021/05/12 08:49:31;;;;;;;5.10;1.08;;;19.30;75.10;;;;;;4743685;30;20044;-81
2021/05/12 08:51:58;;;;;;;4.85;1.00;;;19.40;75.20;;;;;;4743303;30;20044;-82
2021/05/12 08:54:25;;;;;;;3.10;0.57;;;19.50;74.20;;;;;;4744193;30;20412;-82
2021/05/12 08:56:52;;;;;;;5.05;0.80;;;19.50;74.60;;;;;;4734144;30;20044;-81
2021/05/12 08:59:18;;;;;;;5.68;0.95;;;19.60;73.40;;;;;;4742390;30;20060;-82
2021/05/12 09:01:45;;;;;;;6.57;1.20;;;19.60;71.20;;;;;;4744141;30;20060;-82
2021/05/12 09:04:12;;;;;;;5.28;0.98;;;19.60;69.20;;;;;;4744100;30;20483;-82
2021/05/12 09:06:38;;;;;;;6.43;1.75;;;19.60;70.90;;;;;;4744062;30;20067;-81
2021/05/12 09:09:07;;;;;;;6.05;1.10;;;19.70;71.60;;;;;;4742452;30;20047;-81
2021/05/12 09:11:35;;;;;;;6.57;1.40;;;19.90;71.50;;;;;;4727884;30;20435;-81
2021/05/12 09:14:02;;;;;;;6.00;1.60;;;20.00;69.10;;;;;;4727289;30;20040;-82
2021/05/12 09:16:32;;;;;;;8.77;1.52;;;19.90;69.90;;;;;;4718369;30;20040;-82
2021/05/12 09:19:13;;;;;;;6.60;1.00;;;20.00;70.20;;;;;;4747502;30;20044;-82
2021/05/12 09:22:03;;;;;;;8.30;2.33;;;20.00;69.80;;;;;;4745829;30;20048;-81
2021/05/12 09:24:35;;;;;;;5.10;1.40;;;20.10;68.10;;;;;;4747484;30;20080;-81
2021/05/12 09:27:04;;;;;;;7.07;1.17;;;20.00;69.20;;;;;;4745848;30;20060;-82
2021/05/12 09:29:37;;;;;;;5.72;1.45;;;20.10;69.00;;;;;;4740411;30;20305;-82
2021/05/12 09:32:07;;;;;;;7.18;1.70;;;20.20;69.30;;;;;;4731798;30;20404;-83
2021/05/12 09:35:03;;;;;;;6.82;1.58;;;20.40;69.30;;;;;;4736443;30;20426;-82
2021/05/12 09:37:30;;;;;;;8.02;2.35;;;20.50;68.80;;;;;;4733741;30;20052;-83
2021/05/12 09:40:03;;;;;;;5.05;1.48;;;20.70;67.90;;;;;;4732377;30;20078;-83
2021/05/12 09:42:30;;;;;;;5.57;1.33;;;20.80;67.40;;;;;;4732950;30;20036;-82
2021/05/12 09:45:12;;;;;;;7.95;1.52;;;20.80;66.40;;;;;;4724635;30;20051;-82
2021/05/12 09:47:39;;;;;;;5.07;1.23;;;20.90;65.60;;;;;;4731799;30;20032;-81
2021/05/12 09:50:15;;;;;;;6.30;1.33;;;21.00;64.80;;;;;;4733255;30;20048;-79
2021/05/12 09:52:42;;;;;;;7.40;1.73;;;21.10;65.00;;;;;;4730882;30;20036;-80
2021/05/12 09:55:11;;;;;;;7.72;1.83;;;21.30;65.10;;;;;;4718256;30;20553;-79
2021/05/12 09:58:16;;;;;;;4.70;1.52;;;21.40;64.30;;;;;;4732432;30;20483;-84
2021/05/12 10:00:48;;;;;;;4.32;0.82;;;21.50;64.10;;;;;;4736171;30;20052;-84
2021/05/12 10:03:15;;;;;;;6.82;1.05;;;21.70;64.10;;;;;;4751253;30;20070;-83
2021/05/12 10:05:56;;;;;;;4.28;0.90;;;21.90;63.00;;;;;;4738286;30;20044;-84
2021/05/12 10:08:31;;;;;;;4.72;1.00;;;22.00;61.70;;;;;;4748504;30;20062;-84
2021/05/12 10:11:03;;;;;;;5.82;0.95;;;22.00;59.50;;;;;;4733278;30;20056;-83
2021/05/12 10:13:32;;;;;;;5.67;0.83;;;22.00;58.60;;;;;;4707623;30;20839;-83
2021/05/12 10:15:59;;;;;;;4.65;0.75;;;22.00;58.80;;;;;;4724752;30;20048;-84
2021/05/12 10:18:26;;;;;;;4.65;0.73;;;22.10;59.00;;;;;;4746095;30;20519;-84
2021/05/12 10:20:57;;;;;;;4.38;0.88;;;22.30;58.70;;;;;;4746287;30;20060;-84
2021/05/12 10:23:24;;;;;;;5.57;0.77;;;22.40;57.40;;;;;;4736828;30;20052;-84
2021/05/12 10:25:52;;;;;;;5.15;0.88;;;22.70;56.20;;;;;;4747307;30;20052;-84
2021/05/12 10:28:18;;;;;;;4.00;0.80;;;22.80;54.60;;;;;;4732116;30;20036;-84
2021/05/12 10:30:50;;;;;;;2.58;0.60;;;22.90;54.90;;;;;;4734992;30;20432;-85
2021/05/12 10:33:36;;;;;;;4.73;0.63;;;23.10;54.50;;;;;;4746498;30;20055;-84
2021/05/12 10:36:09;;;;;;;5.03;0.93;;;23.30;52.70;;;;;;4731810;30;20048;-83
2021/05/12 10:38:36;;;;;;;6.05;0.93;;;23.60;52.00;;;;;;4724912;30;20106;-83
2021/05/12 10:41:03;;;;;;;5.53;0.80;;;23.60;51.90;;;;;;4727821;30;20052;-82
2021/05/12 10:43:40;;;;;;;5.30;0.77;;;23.60;50.60;;;;;;4705911;30;20525;-82
2021/05/12 10:46:16;;;;;;;5.07;0.80;;;23.30;50.70;;;;;;4747340;30;20051;-82
2021/05/12 10:48:49;;;;;;;5.55;1.10;;;23.10;51.00;;;;;;4735312;30;20519;-82
2021/05/12 10:51:22;;;;;;;5.65;0.82;;;22.90;51.60;;;;;;4742912;30;20516;-82
2021/05/12 10:53:51;;;;;;;5.43;1.00;;;22.70;52.30;;;;;;4745974;30;20098;-82
2021/05/12 10:56:20;;;;;;;7.07;0.88;;;22.40;52.70;;;;;;4747374;30;20045;-82
2021/05/12 10:58:57;;;;;;;6.32;0.80;;;22.30;54.00;;;;;;4746856;30;20055;-82
2021/05/12 11:01:26;;;;;;;4.22;0.60;;;22.70;54.00;;;;;;4729636;30;20416;-85
2021/05/12 11:03:53;;;;;;;6.70;1.10;;;23.30;53.00;;;;;;4732148;30;20396;-87
2021/05/12 11:06:46;;;;;;;8.52;1.60;;;23.60;51.90;;;;;;4747919;30;20055;-86
2021/05/12 11:09:17;;;;;;;3.30;0.75;;;23.50;50.80;;;;;;4727756;30;20051;-81
2021/05/12 11:11:43;;;;;;;6.05;0.80;;;23.20;51.10;;;;;;4717446;30;20070;-81
2021/05/12 11:14:27;;;;;;;8.18;1.00;;;22.80;52.30;;;;;;4709165;30;20048;-83
2021/05/12 11:17:04;;;;;;;5.25;0.80;;;23.10;52.80;;;;;;4741341;30;20048;-84
2021/05/12 11:19:37;;;;;;;4.80;1.13;;;23.60;52.50;;;;;;4737983;30;20099;-87
2021/05/12 11:25:14;;;;;;;7.05;1.10;;;24.90;49.70;;;;;;4746121;30;20083;-88
2021/05/12 11:28:23;;;;;;;4.28;0.70;;;25.30;47.10;;;;;;4719206;30;20047;-89
2021/05/12 11:33:38;;;;;;;4.13;1.00;;;26.40;46.00;;;;;;4733963;30;20044;-89
2021/05/12 11:38:37;;;;;;;3.78;0.73;;;27.00;44.10;;;;;;4745909;30;20751;-89
2021/05/12 11:41:25;;;;;;;4.20;0.80;;;27.20;43.70;;;;;;4734819;30;20048;-89
2021/05/12 11:44:01;;;;;;;6.10;0.88;;;27.60;43.00;;;;;;4730194;30;20086;-81
2021/05/12 11:46:33;;;;;;;7.22;2.60;;;27.90;41.20;;;;;;4745922;30;20401;-81
2021/05/12 11:49:03;;;;;;;3.97;0.90;;;28.00;41.30;;;;;;4744562;30;20043;-80
2021/05/12 11:51:41;;;;;;;3.80;0.60;;;28.30;41.00;;;;;;4743457;30;20044;-80
2021/05/12 11:54:22;;;;;;;3.65;0.65;;;28.60;39.30;;;;;;4744467;30;20032;-80
2021/05/12 11:56:51;;;;;;;3.42;0.77;;;28.70;38.70;;;;;;4745603;30;20044;-80
2021/05/12 11:59:44;;;;;;;2.42;0.63;;;28.90;38.90;;;;;;4728323;30;20040;-80
2021/05/12 12:02:12;;;;;;;2.95;0.63;;;29.30;37.70;;;;;;4723356;30;20052;-81
2021/05/12 12:04:51;;;;;;;2.50;0.60;;;29.60;36.50;;;;;;4744697;30;20469;-81
2021/05/12 12:07:18;;;;;;;3.15;0.60;;;29.90;36.40;;;;;;4746464;30;20040;-80
2021/05/12 12:09:44;;;;;;;4.32;0.70;;;30.40;36.30;;;;;;4727669;30;20043;-80
2021/05/12 12:12:12;;;;;;;3.05;0.60;;;30.60;36.30;;;;;;4728342;30;20044;-80
2021/05/12 12:14:38;;;;;;;2.72;0.50;;;31.00;36.30;;;;;;4712320;30;20060;-80
2021/05/12 12:17:12;;;;;;;4.05;0.60;;;30.80;35.30;;;;;;4730193;30;20873;-80
2021/05/12 12:19:39;;;;;;;5.03;0.98;;;30.10;35.60;;;;;;4740030;30;20064;-80
2021/05/12 12:22:07;;;;;;;3.00;0.70;;;29.20;35.70;;;;;;4739523;30;20060;-80
2021/05/12 12:24:34;;;;;;;4.30;0.77;;;28.30;36.10;;;;;;4726014;30;20556;-80
2021/05/12 12:27:02;;;;;;;3.22;0.50;;;27.70;37.30;;;;;;4733217;30;20044;-80
2021/05/12 12:29:32;;;;;;;4.82;0.70;;;27.60;37.70;;;;;;4722830;30;20044;-83
2021/05/12 12:32:08;;;;;;;3.60;0.82;;;27.80;36.60;;;;;;4731338;30;20044;-81
2021/05/12 12:34:39;;;;;;;5.22;1.17;;;27.50;36.80;;;;;;4745713;30;20044;-81
2021/05/12 12:37:16;;;;;;;3.13;0.60;;;27.10;37.30;;;;;;4744893;30;20512;-79
2021/05/12 12:39:54;;;;;;;4.70;0.90;;;26.70;38.00;;;;;;4703517;30;20040;-81
2021/05/12 12:42:29;;;;;;;3.70;0.50;;;26.40;38.40;;;;;;4742458;30;20572;-81
2021/05/12 12:45:15;;;;;;;4.82;1.00;;;26.30;38.80;;;;;;4733048;30;20048;-81
2021/05/12 12:48:08;;;;;;;5.47;0.63;;;26.40;38.80;;;;;;4720270;30;20044;-81
2021/05/12 12:50:36;;;;;;;3.80;0.65;;;26.40;39.30;;;;;;4712144;30;20409;-81
2021/05/12 12:53:10;;;;;;;2.25;0.60;;;26.30;38.60;;;;;;4728961;30;20036;-80
2021/05/12 12:55:37;;;;;;;3.60;0.95;;;26.10;39.10;;;;;;4729196;30;20052;-80
2021/05/12 12:58:10;;;;;;;3.55;0.80;;;26.00;39.30;;;;;;4714786;30;20047;-81
2021/05/12 13:00:42;;;;;;;3.08;0.60;;;25.80;39.60;;;;;;4723473;30;20044;-81
2021/05/12 13:03:18;;;;;;;2.80;0.50;;;25.70;40.10;;;;;;4745239;30;20052;-81